TimeEDT,TemperatureF,Dew PointF,Humidity,Sea Level PressureIn,VisibilityMPH,Wind Direction,Wind SpeedMPH,Gust SpeedMPH,PrecipitationIn,Events,Conditions,WindDirDegrees,DateUTC
12:53 AM,78.1,72.0,81,29.99,10.0,West,9.2,-,N/A,,Clear,260,2013-05-24 04:53:00
1:53 AM,77.0,71.1,82,29.99,10.0,West,5.8,-,N/A,,Clear,270,2013-05-24 05:53:00
2:53 AM,75.9,71.1,85,29.97,10.0,SW,3.5,-,N/A,,Clear,230,2013-05-24 06:53:00
3:53 AM,75.0,71.1,87,29.97,10.0,WSW,5.8,-,N/A,,Clear,240,2013-05-24 07:53:00
4:53 AM,75.0,72.0,90,29.99,10.0,West,3.5,-,N/A,,Clear,270,2013-05-24 08:53:00
5:53 AM,73.9,72.0,93,29.99,10.0,WSW,3.5,-,N/A,,Clear,250,2013-05-24 09:53:00
6:53 AM,75.0,71.1,87,30.02,10.0,West,5.8,-,N/A,,Clear,280,2013-05-24 10:53:00
7:53 AM,77.0,70.0,79,30.04,10.0,West,4.6,-,N/A,,Clear,280,2013-05-24 11:53:00
8:53 AM,80.1,72.0,76,30.04,10.0,NW,5.8,-,N/A,,Clear,310,2013-05-24 12:53:00
9:53 AM,82.9,71.1,67,30.05,10.0,WNW,6.9,-,N/A,,Clear,300,2013-05-24 13:53:00
10:53 AM,87.1,71.1,59,30.05,10.0,NNW,9.2,-,N/A,,Partly Cloudy,330,2013-05-24 14:53:00
11:53 AM,89.1,70.0,53,30.06,10.0,NNW,5.8,-,N/A,,Partly Cloudy,340,2013-05-24 15:53:00
12:53 PM,88.0,66.9,49,30.04,10.0,NW,8.1,-,N/A,,Mostly Cloudy,320,2013-05-24 16:53:00
1:53 PM,93.0,66.0,41,30.03,10.0,WNW,9.2,-,N/A,,Partly Cloudy,300,2013-05-24 17:53:00
2:53 PM,87.1,72.0,61,30.02,10.0,ESE,12.7,-,N/A,,Mostly Cloudy,110,2013-05-24 18:53:00
3:53 PM,86.0,72.0,63,30.02,10.0,ESE,6.9,-,N/A,,Mostly Cloudy,110,2013-05-24 19:53:00
4:53 PM,87.1,71.1,59,30.01,10.0,East,8.1,-,N/A,,Partly Cloudy,100,2013-05-24 20:53:00
5:53 PM,86.0,69.1,57,30.02,10.0,East,15.0,-,N/A,,Scattered Clouds,80,2013-05-24 21:53:00
6:53 PM,84.0,69.1,61,30.03,10.0,East,10.4,-,N/A,,Partly Cloudy,100,2013-05-24 22:53:00
7:53 PM,82.0,70.0,67,30.02,10.0,East,6.9,-,N/A,,Clear,100,2013-05-24 23:53:00
8:53 PM,81.0,73.0,77,30.05,10.0,ESE,9.2,-,N/A,,Clear,110,2013-05-25 00:53:00
9:53 PM,80.1,72.0,76,30.06,10.0,ESE,6.9,-,N/A,,Clear,110,2013-05-25 01:53:00
10:53 PM,79.0,73.0,82,30.07,10.0,ESE,4.6,-,N/A,,Clear,120,2013-05-25 02:53:00
11:53 PM,78.1,73.0,84,30.07,10.0,Calm,Calm,-,N/A,,Clear,0,2013-05-25 03:53:00